createdAt,value
2022-12-24T00:01:07.102Z,11.20
2022-12-24T00:03:35.336Z,11.23
2022-12-24T00:06:05.410Z,11.26
2022-12-24T00:08:32.816Z,11.36
2022-12-24T00:11:00.485Z,11.32
2022-12-24T00:13:27.952Z,11.45
2022-12-24T00:15:56.669Z,11.42
2022-12-24T00:18:24.080Z,11.42
2022-12-24T00:20:51.713Z,11.46
2022-12-24T00:23:19.477Z,11.52
2022-12-24T00:25:47.598Z,11.49
2022-12-24T00:28:16.185Z,11.57
2022-12-24T00:30:44.573Z,11.55
2022-12-24T00:33:13.376Z,11.47
2022-12-24T00:35:41.585Z,11.48
2022-12-24T00:38:09.929Z,11.50
2022-12-24T00:40:37.379Z,11.41
2022-12-24T00:43:04.798Z,11.24
2022-12-24T00:45:32.199Z,11.15
2022-12-24T00:47:59.709Z,11.18
2022-12-24T00:50:28.409Z,11.00
2022-12-24T00:52:55.759Z,10.95
2022-12-24T00:55:23.159Z,10.86
2022-12-24T00:57:50.550Z,10.89
2022-12-24T01:00:18.382Z,10.90
2022-12-24T01:02:46.076Z,10.98
2022-12-24T01:05:12.829Z,10.91
2022-12-24T01:07:43.866Z,10.74
2022-12-24T01:10:13.715Z,10.74
2022-12-24T01:12:41.678Z,10.89
2022-12-24T01:15:10.312Z,11.10
2022-12-24T01:17:38.043Z,11.03
2022-12-24T01:20:07.885Z,11.15
2022-12-24T01:22:35.387Z,11.15
2022-12-24T01:25:05.056Z,11.20
2022-12-24T01:27:33.168Z,11.19
2022-12-24T01:30:00.519Z,11.16
2022-12-24T01:32:27.916Z,11.16
2022-12-24T01:34:55.300Z,11.17
2022-12-24T01:37:22.702Z,11.18
2022-12-24T01:39:50.135Z,11.31
2022-12-24T01:42:39.257Z,11.17
2022-12-24T01:45:41.760Z,10.89
2022-12-24T01:48:17.075Z,10.87
2022-12-24T01:50:45.196Z,10.91
2022-12-24T01:53:13.506Z,10.98
2022-12-24T01:55:41.857Z,10.95
2022-12-24T01:58:12.139Z,11.04
2022-12-24T02:00:39.561Z,10.92
2022-12-24T02:03:07.572Z,11.02
2022-12-24T02:05:40.162Z,11.15
2022-12-24T02:08:09.332Z,11.11
2022-12-24T02:10:36.720Z,11.02
2022-12-24T02:13:05.399Z,11.08
2022-12-24T02:15:43.591Z,11.00
2022-12-24T02:18:20.741Z,10.98
2022-12-24T02:21:11.287Z,10.90
2022-12-24T02:24:03.262Z,10.91
2022-12-24T02:26:44.095Z,10.95
2022-12-24T02:29:27.472Z,10.80
2022-12-24T02:32:02.786Z,10.91
2022-12-24T02:34:33.916Z,11.01
2022-12-24T02:37:06.695Z,11.00
2022-12-24T02:39:41.273Z,10.97
2022-12-24T02:42:12.835Z,11.13
2022-12-24T02:44:45.656Z,11.19
2022-12-24T02:47:16.060Z,11.12
2022-12-24T02:49:45.741Z,11.01
2022-12-24T02:52:28.942Z,10.97
2022-12-24T02:54:56.582Z,10.93
2022-12-24T02:57:34.491Z,10.95
2022-12-24T03:00:03.707Z,10.95
2022-12-24T03:02:51.486Z,10.86
2022-12-24T03:05:21.344Z,11.01
2022-12-24T03:07:57.348Z,10.93
2022-12-24T03:10:30.190Z,10.96
2022-12-24T03:13:03.399Z,11.08
2022-12-24T03:15:32.667Z,10.94
2022-12-24T03:18:04.279Z,10.97
2022-12-24T03:20:36.211Z,11.06
2022-12-24T03:23:04.935Z,11.09
2022-12-24T03:25:33.787Z,11.16
2022-12-24T03:28:05.809Z,11.17
2022-12-24T03:30:33.749Z,11.16
2022-12-24T03:33:02.740Z,11.10
2022-12-24T03:35:30.132Z,11.15
2022-12-24T03:37:57.616Z,11.00
2022-12-24T03:40:25.053Z,10.95
2022-12-24T03:42:52.466Z,10.98
2022-12-24T03:45:19.896Z,10.95
2022-12-24T03:47:47.325Z,10.98
2022-12-24T03:50:16.118Z,11.01
2022-12-24T03:52:43.976Z,10.92
2022-12-24T03:55:11.503Z,10.94
2022-12-24T03:57:39.018Z,10.96
2022-12-24T04:00:07.998Z,11.00
2022-12-24T04:02:35.875Z,11.08
2022-12-24T04:05:03.460Z,11.03
2022-12-24T04:07:35.919Z,11.11
2022-12-24T04:10:03.313Z,11.08
2022-12-24T04:12:30.690Z,11.09
2022-12-24T04:14:58.065Z,11.12
2022-12-24T04:17:25.480Z,11.10
2022-12-24T04:19:52.898Z,11.10
2022-12-24T04:22:20.486Z,11.16
2022-12-24T04:24:49.287Z,11.20
2022-12-24T04:27:17.616Z,11.35
2022-12-24T04:29:45.046Z,11.27
2022-12-24T04:32:12.497Z,11.39
2022-12-24T04:34:39.888Z,11.45
2022-12-24T04:37:07.296Z,11.45
2022-12-24T04:39:34.688Z,11.55
2022-12-24T04:42:03.386Z,11.42
2022-12-24T04:44:30.756Z,11.42
2022-12-24T04:46:58.107Z,11.48
2022-12-24T04:49:25.685Z,11.54
2022-12-24T04:51:53.084Z,11.47
2022-12-24T04:54:20.906Z,11.53
2022-12-24T04:56:48.321Z,11.45
2022-12-24T04:59:17.009Z,11.44
2022-12-24T05:01:44.443Z,11.46
2022-12-24T05:04:12.068Z,11.48
2022-12-24T05:06:39.462Z,11.41
2022-12-24T05:09:06.866Z,11.34
2022-12-24T05:11:34.278Z,11.42
2022-12-24T05:14:01.644Z,11.36
2022-12-24T05:16:30.437Z,11.19
2022-12-24T05:18:57.931Z,11.14
2022-12-24T05:21:26.073Z,11.20
2022-12-24T05:24:11.529Z,11.19
2022-12-24T05:26:43.092Z,11.19
2022-12-24T05:29:12.940Z,11.29
2022-12-24T05:31:42.703Z,11.02
2022-12-24T05:34:10.533Z,11.05
2022-12-24T05:36:38.407Z,10.95
2022-12-24T05:39:11.632Z,10.93
2022-12-24T05:41:42.993Z,10.92
2022-12-24T05:44:10.394Z,10.81
2022-12-24T05:46:37.913Z,10.87
2022-12-24T05:49:06.797Z,10.86
2022-12-24T05:51:34.229Z,10.81
2022-12-24T05:54:01.640Z,10.81
2022-12-24T05:56:29.536Z,10.99
2022-12-24T05:58:57.946Z,10.94
2022-12-24T06:01:26.161Z,10.97
2022-12-24T06:03:54.226Z,10.84
2022-12-24T06:06:23.827Z,10.92
2022-12-24T06:08:52.982Z,10.82
2022-12-24T06:11:22.196Z,10.91
2022-12-24T06:13:49.601Z,10.76
2022-12-24T06:16:19.067Z,10.82
2022-12-24T06:18:46.646Z,10.79
2022-12-24T06:21:14.583Z,10.81
2022-12-24T06:23:44.950Z,10.67
2022-12-24T06:26:14.614Z,10.66
2022-12-24T06:28:42.719Z,10.65
2022-12-24T06:31:12.735Z,10.69
2022-12-24T06:33:40.541Z,10.63
2022-12-24T06:36:15.004Z,10.69
2022-12-24T06:38:46.229Z,10.61
2022-12-24T06:41:14.057Z,10.60
2022-12-24T06:43:45.061Z,10.53
2022-12-24T06:46:12.967Z,10.59
2022-12-24T06:48:40.515Z,10.64
2022-12-24T06:51:08.012Z,10.71
2022-12-24T06:53:35.364Z,10.68
2022-12-24T06:56:04.779Z,10.75
2022-12-24T06:58:32.403Z,10.85
2022-12-24T07:01:01.988Z,10.84
2022-12-24T07:03:29.830Z,10.89
2022-12-24T07:05:57.418Z,11.00
2022-12-24T07:08:25.067Z,10.91
2022-12-24T07:10:54.514Z,10.97
2022-12-24T07:13:23.476Z,11.00
2022-12-24T07:15:58.662Z,10.97
2022-12-24T07:18:26.254Z,11.01
2022-12-24T07:20:53.637Z,11.01
2022-12-24T07:23:21.190Z,11.03
2022-12-24T07:25:48.603Z,11.04
2022-12-24T07:28:16.041Z,11.01
2022-12-24T07:30:44.912Z,11.01
2022-12-24T07:33:12.406Z,11.05
2022-12-24T07:35:39.771Z,11.01
2022-12-24T07:38:07.130Z,11.05
2022-12-24T07:40:34.798Z,11.05
2022-12-24T07:43:02.129Z,11.01
2022-12-24T07:45:29.538Z,10.97
2022-12-24T07:47:58.269Z,10.86
2022-12-24T07:50:25.627Z,11.07
2022-12-24T07:52:53.420Z,10.86
2022-12-24T07:55:21.211Z,10.85
2022-12-24T07:57:48.620Z,10.91
2022-12-24T08:00:16.564Z,10.89
2022-12-24T08:02:44.311Z,10.92
2022-12-24T08:05:13.172Z,10.93
2022-12-24T08:07:40.577Z,10.96
2022-12-24T08:10:09.412Z,10.89
2022-12-24T08:12:36.812Z,10.91
2022-12-24T08:15:04.675Z,10.83
2022-12-24T08:17:32.621Z,10.90
2022-12-24T08:20:00.120Z,10.85
2022-12-24T08:22:28.872Z,10.80
2022-12-24T08:24:56.257Z,10.78
2022-12-24T08:27:23.665Z,10.73
2022-12-24T08:29:51.107Z,10.76
2022-12-24T08:32:19.027Z,10.71
2022-12-24T08:34:46.310Z,10.79
2022-12-24T08:37:13.734Z,10.83
2022-12-24T08:39:42.460Z,10.83
2022-12-24T08:42:09.870Z,10.86
2022-12-24T08:44:37.312Z,10.90
2022-12-24T08:47:04.830Z,10.93
2022-12-24T08:49:32.250Z,10.90
2022-12-24T08:51:59.616Z,10.89
2022-12-24T08:54:27.467Z,11.02
2022-12-24T08:56:56.189Z,11.04
2022-12-24T08:59:23.704Z,11.12
2022-12-24T09:01:52.306Z,11.00
2022-12-24T09:04:20.153Z,11.06
2022-12-24T09:06:47.524Z,10.94
2022-12-24T09:09:14.965Z,11.01
2022-12-24T09:11:42.431Z,11.12
2022-12-24T09:14:11.127Z,11.08
2022-12-24T09:16:38.592Z,11.21
2022-12-24T09:19:06.444Z,11.21
2022-12-24T09:21:33.893Z,11.19
2022-12-24T09:24:01.369Z,11.34
2022-12-24T09:26:29.902Z,11.31
2022-12-24T09:28:58.282Z,11.41
2022-12-24T09:31:27.721Z,11.44
2022-12-24T09:33:55.977Z,11.53
2022-12-24T09:36:23.416Z,11.53
2022-12-24T09:38:51.219Z,11.63
2022-12-24T09:41:31.753Z,11.65
2022-12-24T09:44:04.730Z,11.80
2022-12-24T09:46:36.807Z,11.79
2022-12-24T09:49:10.072Z,11.92
2022-12-24T09:51:42.674Z,12.24
2022-12-24T09:54:16.176Z,12.27
2022-12-24T09:56:46.275Z,12.41
2022-12-24T09:59:16.266Z,12.49
2022-12-24T10:01:45.070Z,12.63
2022-12-24T10:04:15.639Z,12.41
2022-12-24T10:06:51.327Z,12.47
2022-12-24T10:09:29.704Z,12.40
2022-12-24T10:12:04.988Z,12.42
2022-12-24T10:14:50.566Z,12.32
2022-12-24T10:17:40.567Z,12.30
2022-12-24T10:20:30.992Z,12.07
2022-12-24T10:23:06.051Z,12.32
2022-12-24T10:25:39.179Z,12.19
2022-12-24T10:28:13.958Z,12.24
2022-12-24T10:30:42.543Z,12.33
2022-12-24T10:33:20.995Z,12.29
2022-12-24T10:35:52.853Z,12.39
2022-12-24T10:38:20.418Z,12.40
2022-12-24T10:40:50.856Z,12.17
2022-12-24T10:43:21.358Z,12.41
2022-12-24T10:45:52.165Z,12.35
2022-12-24T10:48:26.602Z,12.34
2022-12-24T10:51:00.207Z,12.28
2022-12-24T10:53:37.752Z,12.42
2022-12-24T10:56:08.226Z,12.40
2022-12-24T10:58:36.810Z,12.46
2022-12-24T11:01:05.167Z,12.39
2022-12-24T11:03:35.943Z,12.31
2022-12-24T11:06:07.952Z,12.55
2022-12-24T11:08:36.398Z,12.59
2022-12-24T11:11:06.343Z,12.45
2022-12-24T11:13:38.414Z,12.27
2022-12-24T11:16:11.088Z,12.20
2022-12-24T11:18:51.145Z,12.23
2022-12-24T11:21:24.689Z,12.03
2022-12-24T11:23:55.664Z,11.83
2022-12-24T11:26:25.428Z,11.89
2022-12-24T11:29:14.451Z,11.84
2022-12-24T11:31:41.975Z,11.77
2022-12-24T11:34:25.461Z,11.77
2022-12-24T11:36:54.888Z,11.98
2022-12-24T11:39:24.101Z,11.77
2022-12-24T11:41:54.040Z,11.92
2022-12-24T11:44:26.750Z,11.93
2022-12-24T11:46:57.362Z,11.79
2022-12-24T11:49:28.392Z,11.76
2022-12-24T11:52:12.579Z,11.88
2022-12-24T11:54:46.542Z,11.91
2022-12-24T11:57:18.707Z,11.99
2022-12-24T11:59:49.190Z,11.99
2022-12-24T12:02:22.605Z,12.05
2022-12-24T12:04:55.030Z,12.05
2022-12-24T12:07:26.409Z,12.17
2022-12-24T12:09:58.966Z,12.28
2022-12-24T12:12:29.002Z,12.20
2022-12-24T12:15:01.196Z,12.03
2022-12-24T12:17:33.439Z,11.90
2022-12-24T12:20:07.186Z,11.93
2022-12-24T12:22:39.809Z,11.96
2022-12-24T12:25:18.480Z,12.08
2022-12-24T12:27:48.596Z,12.05
2022-12-24T12:30:18.715Z,12.04
2022-12-24T12:32:52.114Z,12.08
2022-12-24T12:35:26.946Z,11.96
2022-12-24T12:37:58.211Z,12.03
2022-12-24T12:40:48.430Z,11.89
2022-12-24T12:43:32.459Z,12.04
2022-12-24T12:46:07.705Z,11.83
2022-12-24T12:49:02.892Z,11.85
2022-12-24T12:51:43.249Z,11.75
2022-12-24T12:54:32.173Z,11.81
2022-12-24T12:57:06.573Z,11.77
2022-12-24T12:59:37.735Z,11.79
2022-12-24T13:02:26.060Z,11.78
2022-12-24T13:05:15.258Z,11.91
2022-12-24T13:08:18.721Z,11.87
2022-12-24T13:11:05.439Z,11.87
2022-12-24T13:13:48.563Z,12.04
2022-12-24T13:16:41.102Z,12.20
2022-12-24T13:19:19.594Z,12.30
2022-12-24T13:21:48.782Z,12.31
2022-12-24T13:24:20.090Z,12.40
2022-12-24T13:27:01.993Z,12.52
2022-12-24T13:29:42.420Z,12.52
2022-12-24T13:32:39.188Z,12.57
2022-12-24T13:35:37.144Z,12.67
2022-12-24T13:38:46.077Z,12.75
2022-12-24T13:41:49.808Z,12.67
2022-12-24T13:44:23.103Z,12.68
2022-12-24T13:46:56.502Z,12.60
2022-12-24T13:49:29.655Z,12.61
2022-12-24T13:52:19.592Z,12.63
2022-12-24T13:54:51.432Z,12.56
2022-12-24T13:57:32.777Z,12.53
2022-12-24T14:00:03.671Z,12.57
2022-12-24T14:02:36.850Z,12.66
2022-12-24T14:05:09.360Z,12.64
2022-12-24T14:07:37.928Z,12.49
2022-12-24T14:10:07.191Z,12.28
2022-12-24T14:12:48.910Z,12.18
2022-12-24T14:15:52.818Z,12.22
2022-12-24T14:18:23.427Z,12.18
2022-12-24T14:20:52.453Z,12.17
2022-12-24T14:23:31.927Z,12.08
2022-12-24T14:26:01.619Z,12.02
2022-12-24T14:28:37.543Z,12.09
2022-12-24T14:31:06.661Z,12.23
2022-12-24T14:33:36.127Z,11.99
2022-12-24T14:36:04.118Z,12.15
2022-12-24T14:38:31.979Z,12.11
2022-12-24T14:41:08.993Z,11.98
2022-12-24T14:43:49.646Z,11.86
2022-12-24T14:46:25.595Z,11.77
2022-12-24T14:48:56.159Z,11.74
2022-12-24T14:51:30.697Z,11.81
2022-12-24T14:54:32.187Z,11.62
2022-12-24T14:57:23.156Z,11.75
2022-12-24T14:59:54.274Z,11.70
2022-12-24T15:02:39.302Z,11.71
2022-12-24T15:05:10.336Z,11.56
2022-12-24T15:07:47.340Z,11.52
2022-12-24T15:10:28.927Z,11.34
2022-12-24T15:12:58.564Z,11.35
2022-12-24T15:15:27.398Z,11.25
2022-12-24T15:17:55.946Z,11.34
2022-12-24T15:20:27.468Z,11.26
2022-12-24T15:22:56.904Z,11.14
2022-12-24T15:25:27.126Z,11.18
2022-12-24T15:27:54.737Z,11.17
2022-12-24T15:30:24.186Z,11.16
2022-12-24T15:32:54.889Z,11.15
2022-12-24T15:35:52.607Z,11.14
2022-12-24T15:38:25.588Z,11.25
2022-12-24T15:40:53.995Z,11.24
2022-12-24T15:43:21.745Z,11.16
2022-12-24T15:45:49.412Z,11.04
2022-12-24T15:48:23.523Z,10.99
2022-12-24T15:50:53.701Z,10.95
2022-12-24T15:53:26.790Z,10.83
2022-12-24T15:56:03.508Z,10.74
2022-12-24T15:58:33.274Z,10.87
2022-12-24T16:01:02.652Z,10.84
2022-12-24T16:03:31.972Z,10.93
2022-12-24T16:06:03.263Z,10.81
2022-12-24T16:08:32.990Z,10.84
2022-12-24T16:11:19.019Z,10.91
2022-12-24T16:14:01.538Z,10.85
2022-12-24T16:16:35.730Z,11.04
2022-12-24T16:19:06.908Z,11.06
2022-12-24T16:21:37.530Z,10.97
2022-12-24T16:24:08.812Z,10.77
2022-12-24T16:26:38.098Z,10.70
2022-12-24T16:29:05.523Z,10.67
2022-12-24T16:31:34.877Z,10.65
2022-12-24T16:34:04.496Z,10.63
2022-12-24T16:36:33.198Z,10.25
2022-12-24T16:39:18.202Z,10.13
2022-12-24T16:42:03.316Z,10.20
2022-12-24T16:44:30.678Z,10.03
2022-12-24T16:47:00.581Z,10.03
2022-12-24T16:49:30.780Z,9.93
2022-12-24T16:51:58.497Z,9.83
2022-12-24T16:54:25.891Z,9.44
2022-12-24T16:56:53.257Z,9.46
2022-12-24T16:59:22.912Z,9.52
2022-12-24T17:01:51.844Z,9.70
2022-12-24T17:04:19.969Z,9.60
2022-12-24T17:06:49.787Z,9.65
2022-12-24T17:09:17.755Z,9.64
2022-12-24T17:11:45.211Z,9.83
2022-12-24T17:14:19.652Z,9.88
2022-12-24T17:16:47.788Z,9.81
2022-12-24T17:19:15.337Z,9.61
2022-12-24T17:21:42.817Z,9.68
2022-12-24T17:24:12.374Z,9.49
2022-12-24T17:26:39.818Z,9.56
2022-12-24T17:29:07.296Z,9.64
2022-12-24T17:31:34.915Z,9.62
2022-12-24T17:34:02.361Z,9.62
2022-12-24T17:36:29.728Z,9.54
2022-12-24T17:38:57.131Z,9.39
2022-12-24T17:41:25.803Z,9.18
2022-12-24T17:43:53.390Z,9.29
2022-12-24T17:46:22.747Z,9.22
2022-12-24T17:48:50.807Z,9.06
2022-12-24T17:51:20.438Z,8.74
2022-12-24T17:53:48.645Z,9.06
2022-12-24T17:56:17.027Z,8.88
2022-12-24T17:58:47.201Z,8.49
2022-12-24T18:01:17.102Z,8.35
2022-12-24T18:03:44.739Z,8.46
2022-12-24T18:06:13.388Z,8.27
2022-12-24T18:08:42.562Z,8.10
2022-12-24T18:11:14.431Z,8.23
2022-12-24T18:13:42.707Z,7.93
2022-12-24T18:16:19.959Z,7.92
2022-12-24T18:18:48.189Z,7.89
2022-12-24T18:21:17.172Z,7.79
2022-12-24T18:23:46.383Z,7.94
2022-12-24T18:26:15.339Z,7.61
2022-12-24T18:28:43.686Z,7.78
2022-12-24T18:31:13.923Z,7.49
2022-12-24T18:33:43.371Z,7.36
2022-12-24T18:36:11.294Z,7.32
2022-12-24T18:38:39.179Z,7.36
2022-12-24T18:41:08.368Z,7.23
2022-12-24T18:43:36.115Z,7.20
2022-12-24T18:46:07.408Z,7.32
2022-12-24T18:48:34.830Z,7.53
2022-12-24T18:51:03.612Z,7.04
2022-12-24T18:53:31.067Z,7.22
2022-12-24T18:56:03.821Z,7.17
2022-12-24T18:58:31.228Z,6.94
2022-12-24T19:00:58.647Z,6.97
2022-12-24T19:03:26.394Z,7.12
2022-12-24T19:05:53.769Z,7.08
2022-12-24T19:08:46.988Z,6.96
2022-12-24T19:11:10.001Z,7.05
2022-12-24T19:13:37.415Z,7.00
2022-12-24T19:16:05.924Z,6.94
2022-12-24T19:18:33.676Z,7.01
2022-12-24T19:21:06.104Z,7.02
2022-12-24T19:23:35.106Z,6.97
2022-12-24T19:26:02.806Z,6.98
2022-12-24T19:28:30.730Z,7.05
2022-12-24T19:31:03.488Z,7.07
2022-12-24T19:33:31.125Z,7.06
2022-12-24T19:35:58.722Z,7.04
2022-12-24T19:38:26.105Z,7.07
2022-12-24T19:40:54.799Z,7.11
2022-12-24T19:43:22.192Z,7.22
2022-12-24T19:45:49.744Z,7.31
2022-12-24T19:48:17.323Z,7.35
2022-12-24T19:50:44.679Z,7.34
2022-12-24T19:53:12.058Z,7.48
2022-12-24T19:55:45.622Z,7.36
2022-12-24T19:58:14.473Z,7.37
2022-12-24T20:00:41.860Z,7.34
2022-12-24T20:03:09.381Z,7.24
2022-12-24T20:05:40.953Z,7.25
2022-12-24T20:08:08.591Z,7.16
2022-12-24T20:10:39.528Z,7.20
2022-12-24T20:13:06.964Z,7.26
2022-12-24T20:15:40.597Z,7.38
2022-12-24T20:18:08.463Z,7.42
2022-12-24T20:20:36.059Z,7.51
2022-12-24T20:23:04.360Z,7.63
2022-12-24T20:25:34.224Z,7.74
2022-12-24T20:28:01.604Z,7.86
2022-12-24T20:30:29.021Z,7.94
2022-12-24T20:32:58.395Z,7.91
2022-12-24T20:35:25.836Z,7.93
2022-12-24T20:37:53.327Z,7.94
2022-12-24T20:40:20.719Z,7.90
2022-12-24T20:42:48.073Z,7.84
2022-12-24T20:45:16.319Z,7.87
2022-12-24T20:47:43.695Z,7.86
2022-12-24T20:50:12.815Z,7.80
2022-12-24T20:52:40.489Z,7.67
2022-12-24T20:55:08.234Z,7.58
2022-12-24T20:57:36.923Z,7.61
2022-12-24T21:00:05.476Z,7.49
2022-12-24T21:02:33.000Z,7.31
2022-12-24T21:05:02.538Z,7.31
2022-12-24T21:07:31.610Z,7.22
2022-12-24T21:09:58.974Z,7.03
2022-12-24T21:12:44.165Z,7.21
2022-12-24T21:15:11.693Z,6.99
2022-12-24T21:17:39.068Z,6.83
2022-12-24T21:20:07.669Z,7.02
2022-12-24T21:22:36.363Z,6.99
2022-12-24T21:25:03.737Z,6.69
2022-12-24T21:27:31.881Z,6.60
2022-12-24T21:29:59.985Z,6.51
2022-12-24T21:32:27.297Z,6.37
2022-12-24T21:34:54.667Z,6.46
2022-12-24T21:37:22.050Z,6.37
2022-12-24T21:39:51.230Z,6.37
2022-12-24T21:42:18.750Z,6.40
2022-12-24T21:44:46.155Z,6.36
2022-12-24T21:47:13.833Z,6.29
2022-12-24T21:49:58.826Z,6.32
2022-12-24T21:52:26.197Z,6.24
2022-12-24T21:54:53.954Z,6.27
2022-12-24T21:57:38.710Z,6.32
2022-12-24T22:00:22.914Z,6.24
2022-12-24T22:02:51.614Z,5.96
2022-12-24T22:05:19.942Z,5.91
2022-12-24T22:08:05.049Z,6.16
2022-12-24T22:10:51.481Z,6.12
2022-12-24T22:13:19.866Z,6.10
2022-12-24T22:15:49.009Z,6.11
2022-12-24T22:18:18.066Z,6.06
2022-12-24T22:20:46.643Z,6.30
2022-12-24T22:23:14.677Z,6.14
2022-12-24T22:25:44.372Z,6.10
2022-12-24T22:28:12.738Z,6.21
2022-12-24T22:30:41.210Z,5.84
2022-12-24T22:33:09.395Z,5.69
2022-12-24T22:35:37.778Z,5.94
2022-12-24T22:38:05.249Z,5.94
2022-12-24T22:40:32.630Z,5.97
2022-12-24T22:43:01.374Z,6.06
2022-12-24T22:45:28.757Z,5.88
2022-12-24T22:47:56.189Z,6.01
2022-12-24T22:50:23.808Z,5.80
2022-12-24T22:52:52.523Z,5.62
2022-12-24T22:55:20.065Z,5.81
2022-12-24T22:57:47.608Z,5.76
2022-12-24T23:00:39.290Z,5.72
2022-12-24T23:03:08.005Z,5.91
2022-12-24T23:05:35.672Z,5.69
2022-12-24T23:08:03.138Z,5.56
2022-12-24T23:10:30.543Z,5.22
2022-12-24T23:13:17.303Z,5.38
2022-12-24T23:15:46.098Z,5.45
2022-12-24T23:18:13.800Z,5.59
2022-12-24T23:20:43.161Z,5.46
2022-12-24T23:23:10.577Z,5.38
2022-12-24T23:25:38.284Z,5.38
2022-12-24T23:28:06.031Z,5.40
2022-12-24T23:30:33.697Z,5.53
2022-12-24T23:33:02.549Z,5.47
2022-12-24T23:35:29.938Z,5.26
2022-12-24T23:37:57.381Z,5.48
2022-12-24T23:40:25.679Z,5.51
2022-12-24T23:42:53.076Z,5.33
2022-12-24T23:45:20.474Z,5.44
2022-12-24T23:47:47.878Z,5.28
2022-12-24T23:50:16.561Z,5.31
2022-12-24T23:52:43.942Z,5.32
2022-12-24T23:55:11.320Z,5.19
2022-12-24T23:57:38.704Z,5.30
